首页
METAR-TAF:

METAR-TAF

机场 :

宰赫兰, 沙特阿拉伯

纬度: 26-16N, 经度: 050-09E, 海拔: 26米

当前天气观测

该预报发布于23分钟前的06:00 UTC
风速1节,风向多变
温度 30°C
湿度 27%
气压 1011 hPa
能見度: 8000
少量云层高于4000英尺
散云层高于8000英尺

METAR: OEDR 030600Z VRB01KT 8000 FEW040 SCT080 30/09 Q1011

时间: 09:23 (06:23 UTC)

预报

该预报发布于2小时和23分钟前的04:00 UTC
预报有效从03日的 06点(UTC)到 04日的 12点(UTC)
风速8节,风向北转西北
能見度: 8000
短暂存在
从 03日的 06点(UTC)到 03日的 10点(UTC)
能見度: 4000
少量云层高于3000英尺, 积雨云.
散云层高于4000英尺
雷暴, 雨
成为
从 03日的 10点(UTC)到 03日的 12点(UTC)
风速12节,风向东北

TAF: OEDR 030400Z 0306/0412 34008KT 8000 NSC TEMPO 0306/0310 4000 TSRA FEW030CB SCT040 BECMG 0310/0312 04012KT

超过4000个机场的气象观测和天气预报(METAR&TAF报告)。

可查询的气象台以黄色和红色小点在地图上表示。

将鼠标移到小点上方,可查看气象台名称。

然后点击查看天气观测和预报。

如需切换地图:点击带黑十字的绿色按钮放大地图;点击带横线的绿色按钮缩小地图;或者点击绿色箭头查看邻近地区的地图。


METAR-TAF: